createdAt,value
2022-11-27T00:01:29.847Z,63.04
2022-11-27T00:03:57.515Z,63.22
2022-11-27T00:06:29.195Z,62.44
2022-11-27T00:08:57.093Z,62.92
2022-11-27T00:11:27.788Z,62.69
2022-11-27T00:13:55.432Z,62.80
2022-11-27T00:16:24.390Z,62.85
2022-11-27T00:18:51.611Z,62.90
2022-11-27T00:21:22.703Z,62.52
2022-11-27T00:23:52.919Z,62.72
2022-11-27T00:26:20.668Z,62.34
2022-11-27T00:28:48.513Z,62.68
2022-11-27T00:31:18.496Z,62.60
2022-11-27T00:33:46.235Z,62.36
2022-11-27T00:36:14.768Z,62.51
2022-11-27T00:38:42.570Z,62.62
2022-11-27T00:41:17.207Z,62.37
2022-11-27T00:43:45.535Z,62.07
2022-11-27T00:46:13.710Z,62.53
2022-11-27T00:48:41.437Z,61.95
2022-11-27T00:51:11.655Z,62.24
2022-11-27T00:53:38.704Z,62.02
2022-11-27T00:56:06.643Z,62.10
2022-11-27T00:58:35.219Z,61.98
2022-11-27T01:01:05.543Z,61.66
2022-11-27T01:03:34.281Z,61.70
2022-11-27T01:06:04.187Z,62.20
2022-11-27T01:08:31.549Z,61.74
2022-11-27T01:10:59.733Z,61.79
2022-11-27T01:13:29.404Z,61.95
2022-11-27T01:16:02.848Z,61.93
2022-11-27T01:18:30.387Z,61.80
2022-11-27T01:20:57.831Z,61.75
2022-11-27T01:23:25.335Z,61.90
2022-11-27T01:25:53.728Z,61.99
2022-11-27T01:28:22.331Z,61.54
2022-11-27T01:30:50.535Z,61.88
2022-11-27T01:33:19.463Z,61.57
2022-11-27T01:35:56.213Z,61.25
2022-11-27T01:38:24.640Z,61.58
2022-11-27T01:40:57.942Z,60.95
2022-11-27T01:43:40.164Z,61.23
2022-11-27T01:46:25.398Z,61.42
2022-11-27T01:48:59.696Z,61.61
2022-11-27T01:51:27.043Z,61.81
2022-11-27T01:53:54.936Z,61.53
2022-11-27T01:56:24.754Z,61.47
2022-11-27T01:58:52.616Z,61.21
2022-11-27T02:01:19.683Z,61.71
2022-11-27T02:03:46.755Z,61.34
2022-11-27T02:06:15.145Z,61.22
2022-11-27T02:08:43.048Z,61.93
2022-11-27T02:11:17.423Z,61.83
2022-11-27T02:13:51.046Z,61.12
2022-11-27T02:16:29.808Z,61.38
2022-11-27T02:19:07.367Z,61.00
2022-11-27T02:21:44.417Z,61.17
2022-11-27T02:24:46.986Z,61.34
2022-11-27T02:27:47.315Z,61.21
2022-11-27T02:30:16.037Z,61.39
2022-11-27T02:32:56.091Z,61.26
2022-11-27T02:35:31.729Z,61.68
2022-11-27T02:38:06.396Z,61.10
2022-11-27T02:40:41.333Z,61.37
2022-11-27T02:43:12.912Z,61.30
2022-11-27T02:45:45.126Z,61.79
2022-11-27T02:48:16.031Z,61.31
2022-11-27T02:50:46.724Z,60.96
2022-11-27T02:53:20.810Z,60.87
2022-11-27T02:55:52.011Z,61.54
2022-11-27T02:58:25.011Z,60.95
2022-11-27T03:00:54.795Z,60.94
2022-11-27T03:03:26.507Z,60.61
2022-11-27T03:06:02.504Z,60.88
2022-11-27T03:08:41.651Z,61.18
2022-11-27T03:11:11.341Z,61.12
2022-11-27T03:13:42.684Z,61.48
2022-11-27T03:16:20.712Z,61.83
2022-11-27T03:18:58.693Z,61.90
2022-11-27T03:21:34.313Z,62.74
2022-11-27T03:24:01.606Z,62.88
2022-11-27T03:26:29.044Z,62.99
2022-11-27T03:28:59.995Z,62.65
2022-11-27T03:31:28.915Z,62.93
2022-11-27T03:33:56.541Z,63.54
2022-11-27T03:36:24.786Z,63.50
2022-11-27T03:38:55.585Z,63.36
2022-11-27T03:41:38.748Z,63.71
2022-11-27T03:44:22.119Z,62.92
2022-11-27T03:47:10.514Z,62.98
2022-11-27T03:49:56.956Z,62.87
2022-11-27T03:52:44.891Z,62.98
2022-11-27T03:55:23.973Z,62.27
2022-11-27T03:58:00.306Z,62.33
2022-11-27T04:00:32.905Z,62.32
2022-11-27T04:03:03.283Z,62.40
2022-11-27T04:05:30.700Z,62.19
2022-11-27T04:07:57.950Z,61.62
2022-11-27T04:10:24.982Z,61.84
2022-11-27T04:12:51.980Z,61.91
2022-11-27T04:15:18.946Z,62.04
2022-11-27T04:17:46.153Z,61.59
2022-11-27T04:20:15.443Z,60.87
2022-11-27T04:22:42.413Z,61.57
2022-11-27T04:25:09.919Z,61.08
2022-11-27T04:27:36.855Z,61.50
2022-11-27T04:30:05.236Z,61.36
2022-11-27T04:32:32.208Z,61.49
2022-11-27T04:34:59.139Z,61.60
2022-11-27T04:37:27.420Z,61.72
2022-11-27T04:39:54.354Z,61.85
2022-11-27T04:42:21.373Z,61.68
2022-11-27T04:44:48.293Z,61.75
2022-11-27T04:47:16.377Z,61.89
2022-11-27T04:49:43.350Z,62.14
2022-11-27T04:52:13.725Z,62.21
2022-11-27T04:54:42.237Z,61.93
2022-11-27T04:57:09.490Z,61.94
2022-11-27T04:59:36.524Z,62.27
2022-11-27T05:02:03.629Z,62.07
2022-11-27T05:04:30.897Z,62.26
2022-11-27T05:06:57.911Z,62.48
2022-11-27T05:09:25.072Z,61.74
2022-11-27T05:11:53.314Z,62.20
2022-11-27T05:14:22.423Z,62.25
2022-11-27T05:16:52.547Z,62.00
2022-11-27T05:19:21.945Z,62.06
2022-11-27T05:21:50.083Z,62.45
2022-11-27T05:24:19.825Z,61.89
2022-11-27T05:26:47.627Z,62.30
2022-11-27T05:29:16.452Z,61.97
2022-11-27T05:31:43.692Z,61.71
2022-11-27T05:34:11.379Z,62.25
2022-11-27T05:36:39.570Z,61.89
2022-11-27T05:39:08.561Z,61.64
2022-11-27T05:41:37.532Z,62.11
2022-11-27T05:44:05.652Z,61.97
2022-11-27T05:46:34.245Z,62.05
2022-11-27T05:49:01.360Z,61.69
2022-11-27T05:51:28.450Z,61.70
2022-11-27T05:53:55.452Z,61.66
2022-11-27T05:56:22.429Z,62.20
2022-11-27T05:58:51.150Z,61.73
2022-11-27T06:01:19.275Z,61.52
2022-11-27T06:03:49.923Z,61.74
2022-11-27T06:06:19.780Z,61.76
2022-11-27T06:08:47.985Z,61.86
2022-11-27T06:11:17.621Z,62.00
2022-11-27T06:13:45.961Z,61.91
2022-11-27T06:16:15.796Z,61.89
2022-11-27T06:18:43.210Z,61.93
2022-11-27T06:21:14.480Z,61.79
2022-11-27T06:23:43.105Z,61.95
2022-11-27T06:26:16.720Z,62.10
2022-11-27T06:28:43.885Z,62.34
2022-11-27T06:31:17.705Z,62.82
2022-11-27T06:33:46.064Z,62.16
2022-11-27T06:36:14.451Z,62.45
2022-11-27T06:38:41.832Z,62.23
2022-11-27T06:41:11.761Z,62.41
2022-11-27T06:43:39.226Z,62.39
2022-11-27T06:46:11.272Z,61.94
2022-11-27T06:48:38.301Z,62.25
2022-11-27T06:51:08.023Z,62.39
2022-11-27T06:53:38.529Z,62.33
2022-11-27T06:56:08.997Z,61.97
2022-11-27T06:58:36.907Z,62.29
2022-11-27T07:01:08.627Z,62.17
2022-11-27T07:03:35.784Z,61.93
2022-11-27T07:06:05.464Z,61.93
2022-11-27T07:08:33.435Z,61.85
2022-11-27T07:11:04.791Z,62.22
2022-11-27T07:13:32.645Z,62.24
2022-11-27T07:16:01.639Z,62.07
2022-11-27T07:18:29.323Z,62.05
2022-11-27T07:20:57.075Z,62.33
2022-11-27T07:23:24.307Z,62.40
2022-11-27T07:25:51.367Z,62.32
2022-11-27T07:28:19.755Z,61.93
2022-11-27T07:30:54.713Z,62.04
2022-11-27T07:33:21.915Z,61.77
2022-11-27T07:35:49.085Z,61.17
2022-11-27T07:38:16.334Z,61.28
2022-11-27T07:40:43.246Z,61.37
2022-11-27T07:43:10.188Z,61.55
2022-11-27T07:45:38.661Z,61.73
2022-11-27T07:48:06.158Z,61.39
2022-11-27T07:50:33.205Z,60.85
2022-11-27T07:53:00.132Z,61.10
2022-11-27T07:55:27.112Z,60.96
2022-11-27T07:57:54.143Z,60.80
2022-11-27T08:00:21.956Z,60.37
2022-11-27T08:02:50.299Z,60.53
2022-11-27T08:05:17.470Z,60.66
2022-11-27T08:07:44.428Z,60.05
2022-11-27T08:10:11.562Z,60.53
2022-11-27T08:12:38.591Z,59.97
2022-11-27T08:15:07.280Z,60.48
2022-11-27T08:17:34.462Z,60.01
2022-11-27T08:20:04.071Z,60.32
2022-11-27T08:22:31.108Z,59.90
2022-11-27T08:24:58.230Z,59.83
2022-11-27T08:27:25.177Z,59.43
2022-11-27T08:29:52.120Z,59.38
2022-11-27T08:32:19.081Z,59.29
2022-11-27T08:34:46.007Z,59.08
2022-11-27T08:37:14.356Z,59.63
2022-11-27T08:39:41.337Z,59.65
2022-11-27T08:42:08.584Z,60.00
2022-11-27T08:44:35.572Z,59.34
2022-11-27T08:47:02.576Z,59.41
2022-11-27T08:49:29.521Z,59.45
2022-11-27T08:51:56.487Z,59.87
2022-11-27T08:54:24.967Z,59.63
2022-11-27T08:56:52.692Z,59.60
2022-11-27T08:59:20.248Z,59.63
2022-11-27T09:01:47.216Z,59.53
2022-11-27T09:04:14.199Z,60.02
2022-11-27T09:06:41.866Z,59.98
2022-11-27T09:09:08.896Z,59.92
2022-11-27T09:11:38.070Z,59.74
2022-11-27T09:14:06.010Z,59.26
2022-11-27T09:16:33.499Z,59.09
2022-11-27T09:19:00.606Z,59.50
2022-11-27T09:21:30.576Z,59.34
2022-11-27T09:23:59.694Z,59.10
2022-11-27T09:26:28.653Z,59.49
2022-11-27T09:28:59.203Z,58.90
2022-11-27T09:31:26.537Z,58.94
2022-11-27T09:33:54.657Z,58.66
2022-11-27T09:36:25.308Z,58.86
2022-11-27T09:38:53.240Z,58.50
2022-11-27T09:41:44.235Z,58.95
2022-11-27T09:44:25.606Z,58.72
2022-11-27T09:46:56.335Z,58.72
2022-11-27T09:49:29.011Z,58.80
2022-11-27T09:52:03.920Z,58.87
2022-11-27T09:54:38.733Z,58.36
2022-11-27T09:57:07.360Z,58.41
2022-11-27T09:59:45.789Z,57.98
2022-11-27T10:02:19.527Z,58.15
2022-11-27T10:05:12.466Z,58.12
2022-11-27T10:07:47.096Z,58.21
2022-11-27T10:10:36.232Z,58.44
2022-11-27T10:13:18.373Z,57.71
2022-11-27T10:15:55.666Z,57.97
2022-11-27T10:18:35.543Z,57.88
2022-11-27T10:21:13.036Z,58.04
2022-11-27T10:23:53.959Z,57.85
2022-11-27T10:26:29.090Z,57.85
2022-11-27T10:29:04.806Z,57.43
2022-11-27T10:31:40.790Z,57.16
2022-11-27T10:34:25.970Z,56.77
2022-11-27T10:36:56.525Z,57.08
2022-11-27T10:39:32.189Z,56.82
2022-11-27T10:42:10.205Z,57.18
2022-11-27T10:44:45.894Z,56.59
2022-11-27T10:47:15.715Z,56.39
2022-11-27T10:49:44.280Z,56.54
2022-11-27T10:52:15.771Z,56.71
2022-11-27T10:54:46.869Z,56.47
2022-11-27T10:57:43.895Z,56.08
2022-11-27T11:00:25.533Z,55.59
2022-11-27T11:03:03.004Z,55.75
2022-11-27T11:05:41.352Z,56.06
2022-11-27T11:08:20.350Z,56.20
2022-11-27T11:10:53.454Z,55.95
2022-11-27T11:13:23.510Z,56.63
2022-11-27T11:15:55.269Z,56.19
2022-11-27T11:18:26.930Z,56.10
2022-11-27T11:20:57.662Z,55.99
2022-11-27T11:23:30.803Z,55.94
2022-11-27T11:26:04.091Z,55.63
2022-11-27T11:28:39.347Z,56.05
2022-11-27T11:31:16.710Z,55.76
2022-11-27T11:33:55.200Z,55.81
2022-11-27T11:36:22.637Z,55.83
2022-11-27T11:38:51.462Z,55.26
2022-11-27T11:41:20.085Z,55.71
2022-11-27T11:43:57.447Z,55.48
2022-11-27T11:46:28.490Z,55.74
2022-11-27T11:49:01.857Z,55.43
2022-11-27T11:51:57.388Z,55.44
2022-11-27T11:54:50.346Z,55.18
2022-11-27T11:57:41.015Z,55.20
2022-11-27T12:00:14.581Z,55.53
2022-11-27T12:03:13.763Z,55.37
2022-11-27T12:06:06.263Z,55.37
2022-11-27T12:08:53.992Z,55.46
2022-11-27T12:11:30.607Z,55.48
2022-11-27T12:14:14.166Z,55.51
2022-11-27T12:16:59.006Z,55.46
2022-11-27T12:20:01.686Z,55.64
2022-11-27T12:23:06.386Z,55.65
2022-11-27T12:25:39.228Z,55.64
2022-11-27T12:28:31.699Z,55.93
2022-11-27T12:31:11.788Z,55.78
2022-11-27T12:33:57.609Z,55.79
2022-11-27T12:36:57.677Z,55.63
2022-11-27T12:39:33.778Z,55.43
2022-11-27T12:42:21.880Z,55.69
2022-11-27T12:44:57.718Z,55.29
2022-11-27T12:47:38.895Z,55.51
2022-11-27T12:50:17.628Z,55.28
2022-11-27T12:52:57.056Z,55.30
2022-11-27T12:55:30.722Z,55.31
2022-11-27T12:58:06.049Z,55.74
2022-11-27T13:00:41.082Z,55.57
2022-11-27T13:03:18.388Z,55.24
2022-11-27T13:05:53.332Z,55.33
2022-11-27T13:08:29.125Z,55.29
2022-11-27T13:11:04.882Z,55.64
2022-11-27T13:13:37.534Z,55.14
2022-11-27T13:16:11.142Z,55.36
2022-11-27T13:18:44.746Z,55.01
2022-11-27T13:21:17.483Z,55.00
2022-11-27T13:23:44.533Z,55.15
2022-11-27T13:26:25.974Z,55.11
2022-11-27T13:28:58.127Z,55.42
2022-11-27T13:31:32.127Z,55.38
2022-11-27T13:34:05.258Z,55.42
2022-11-27T13:36:38.943Z,55.54
2022-11-27T13:39:07.156Z,55.53
2022-11-27T13:41:40.243Z,55.56
2022-11-27T13:44:24.687Z,55.48
2022-11-27T13:46:56.944Z,55.42
2022-11-27T13:49:28.797Z,55.73
2022-11-27T13:52:08.286Z,55.41
2022-11-27T13:54:35.423Z,56.01
2022-11-27T13:57:17.069Z,55.96
2022-11-27T13:59:57.712Z,56.04
2022-11-27T14:02:26.303Z,56.47
2022-11-27T14:04:56.346Z,56.14
2022-11-27T14:07:36.348Z,56.25
2022-11-27T14:10:11.757Z,56.47
2022-11-27T14:12:42.562Z,56.41
2022-11-27T14:15:23.388Z,56.37
2022-11-27T14:17:53.946Z,56.40
2022-11-27T14:20:28.621Z,56.24
2022-11-27T14:23:12.262Z,56.32
2022-11-27T14:25:40.403Z,56.15
2022-11-27T14:28:16.553Z,56.47
2022-11-27T14:30:49.170Z,56.68
2022-11-27T14:33:19.156Z,56.54
2022-11-27T14:35:49.786Z,56.51
2022-11-27T14:38:17.070Z,56.57
2022-11-27T14:40:44.737Z,56.54
2022-11-27T14:43:17.038Z,56.34
2022-11-27T14:45:47.399Z,56.51
2022-11-27T14:48:22.493Z,56.50
2022-11-27T14:50:52.389Z,56.41
2022-11-27T14:53:23.622Z,56.70
2022-11-27T14:55:56.431Z,56.64
2022-11-27T14:58:28.191Z,56.56
2022-11-27T15:01:00.767Z,56.43
2022-11-27T15:03:28.411Z,56.79
2022-11-27T15:05:58.964Z,56.67
2022-11-27T15:08:27.075Z,56.55
2022-11-27T15:10:57.485Z,56.95
2022-11-27T15:13:29.090Z,56.88
2022-11-27T15:16:03.729Z,56.87
2022-11-27T15:18:33.776Z,57.29
2022-11-27T15:21:08.470Z,56.92
2022-11-27T15:23:36.311Z,57.02
2022-11-27T15:26:16.926Z,57.33
2022-11-27T15:28:56.966Z,57.16
2022-11-27T15:31:29.250Z,57.54
2022-11-27T15:34:01.121Z,57.44
2022-11-27T15:36:38.216Z,57.70
2022-11-27T15:39:21.985Z,58.25
2022-11-27T15:41:56.025Z,58.37
2022-11-27T15:44:27.209Z,58.23
2022-11-27T15:46:57.357Z,58.43
2022-11-27T15:49:24.569Z,58.66
2022-11-27T15:51:52.625Z,58.66
2022-11-27T15:54:19.890Z,58.47
2022-11-27T15:56:47.804Z,58.73
2022-11-27T15:59:15.856Z,58.76
2022-11-27T16:01:44.336Z,59.01
2022-11-27T16:04:11.346Z,59.20
2022-11-27T16:06:38.736Z,59.05
2022-11-27T16:09:07.039Z,59.18
2022-11-27T16:11:34.103Z,59.50
2022-11-27T16:14:01.099Z,59.57
2022-11-27T16:16:28.166Z,59.23
2022-11-27T16:18:59.743Z,59.35
2022-11-27T16:21:29.935Z,59.62
2022-11-27T16:23:59.295Z,59.94
2022-11-27T16:26:27.770Z,59.81
2022-11-27T16:28:55.333Z,59.61
2022-11-27T16:31:24.768Z,59.50
2022-11-27T16:33:52.571Z,59.47
2022-11-27T16:36:23.101Z,58.87
2022-11-27T16:38:54.101Z,59.33
2022-11-27T16:41:25.925Z,59.07
2022-11-27T16:43:56.785Z,58.70
2022-11-27T16:46:26.991Z,59.01
2022-11-27T16:48:56.071Z,58.98
2022-11-27T16:51:32.175Z,58.86
2022-11-27T16:54:02.602Z,58.63
2022-11-27T16:56:32.098Z,58.53
2022-11-27T16:59:03.195Z,58.67
2022-11-27T17:01:34.583Z,58.66
2022-11-27T17:04:03.541Z,58.63
2022-11-27T17:06:35.934Z,58.57
2022-11-27T17:09:06.139Z,58.59
2022-11-27T17:11:36.082Z,58.46
2022-11-27T17:14:07.632Z,58.49
2022-11-27T17:16:35.971Z,58.56
2022-11-27T17:19:03.730Z,58.61
2022-11-27T17:21:34.752Z,58.76
2022-11-27T17:24:05.085Z,58.76
2022-11-27T17:26:38.468Z,58.66
2022-11-27T17:29:05.481Z,58.65
2022-11-27T17:31:35.363Z,58.86
2022-11-27T17:34:03.694Z,58.79
2022-11-27T17:36:37.072Z,58.74
2022-11-27T17:39:06.324Z,58.54
2022-11-27T17:41:34.153Z,58.13
2022-11-27T17:44:04.436Z,57.84
2022-11-27T17:46:32.507Z,58.07
2022-11-27T17:49:04.517Z,58.16
2022-11-27T17:51:35.513Z,57.82
2022-11-27T17:54:05.202Z,57.62
2022-11-27T17:56:33.442Z,57.59
2022-11-27T17:59:00.644Z,57.63
2022-11-27T18:01:30.083Z,56.97
2022-11-27T18:04:00.781Z,57.32
2022-11-27T18:06:27.989Z,57.23
2022-11-27T18:08:58.082Z,57.19
2022-11-27T18:11:36.282Z,57.39
2022-11-27T18:14:03.976Z,57.35
2022-11-27T18:16:34.822Z,57.44
2022-11-27T18:19:21.422Z,57.24
2022-11-27T18:21:48.556Z,57.55
2022-11-27T18:24:25.081Z,57.42
2022-11-27T18:27:10.130Z,57.53
2022-11-27T18:29:39.696Z,57.47
2022-11-27T18:32:07.472Z,57.21
2022-11-27T18:34:35.119Z,56.70
2022-11-27T18:37:02.370Z,56.83
2022-11-27T18:39:31.532Z,56.87
2022-11-27T18:41:58.527Z,56.81
2022-11-27T18:44:26.699Z,56.63
2022-11-27T18:46:53.842Z,56.54
2022-11-27T18:49:27.283Z,56.53
2022-11-27T18:51:54.791Z,56.44
2022-11-27T18:54:25.383Z,56.20
2022-11-27T18:56:54.105Z,56.38
2022-11-27T18:59:21.221Z,56.38
2022-11-27T19:01:48.409Z,55.91
2022-11-27T19:04:15.725Z,56.01
2022-11-27T19:06:43.858Z,55.82
2022-11-27T19:09:11.427Z,56.15
2022-11-27T19:11:39.699Z,55.77
2022-11-27T19:14:09.565Z,55.45
2022-11-27T19:16:41.963Z,55.83
2022-11-27T19:19:50.254Z,56.19
2022-11-27T19:22:01.656Z,56.24
2022-11-27T19:24:28.703Z,56.26
2022-11-27T19:26:57.649Z,56.41
2022-11-27T19:29:26.084Z,56.66
2022-11-27T19:31:55.051Z,57.20
2022-11-27T19:34:22.693Z,57.28
2022-11-27T19:36:49.648Z,56.70
2022-11-27T19:39:16.753Z,56.76
2022-11-27T19:41:43.860Z,56.98
2022-11-27T19:44:13.002Z,57.02
2022-11-27T19:46:41.523Z,56.50
2022-11-27T19:49:14.568Z,56.34
2022-11-27T19:51:42.924Z,56.20
2022-11-27T19:54:13.383Z,56.03
2022-11-27T19:56:42.288Z,56.27
2022-11-27T19:59:11.317Z,56.60
2022-11-27T20:01:40.166Z,56.37
2022-11-27T20:04:10.960Z,56.38
2022-11-27T20:06:38.408Z,56.41
2022-11-27T20:09:06.781Z,56.46
2022-11-27T20:11:35.502Z,56.15
2022-11-27T20:14:04.546Z,56.36
2022-11-27T20:16:32.441Z,56.24
2022-11-27T20:19:01.484Z,56.48
2022-11-27T20:21:29.767Z,56.23
2022-11-27T20:23:56.882Z,56.43
2022-11-27T20:26:26.203Z,56.11
2022-11-27T20:28:54.577Z,55.79
2022-11-27T20:31:25.085Z,55.89
2022-11-27T20:33:54.223Z,56.08
2022-11-27T20:36:23.493Z,56.02
2022-11-27T20:38:53.768Z,55.80
2022-11-27T20:41:24.566Z,55.79
2022-11-27T20:43:56.004Z,55.79
2022-11-27T20:46:23.624Z,56.23
2022-11-27T20:48:52.559Z,56.17
2022-11-27T20:51:23.980Z,56.45
2022-11-27T20:53:52.261Z,56.96
2022-11-27T20:56:20.814Z,56.92
2022-11-27T20:58:48.696Z,57.14
2022-11-27T21:01:18.318Z,56.83
2022-11-27T21:03:46.715Z,56.81
2022-11-27T21:06:14.883Z,56.98
2022-11-27T21:08:42.179Z,57.17
2022-11-27T21:11:13.236Z,57.38
2022-11-27T21:13:40.659Z,56.89
2022-11-27T21:16:09.604Z,56.94
2022-11-27T21:18:37.074Z,56.86
2022-11-27T21:21:08.942Z,56.80
2022-11-27T21:23:36.021Z,57.03
2022-11-27T21:26:03.166Z,56.98
2022-11-27T21:28:32.565Z,56.83
2022-11-27T21:31:06.614Z,56.74
2022-11-27T21:33:33.875Z,56.90
2022-11-27T21:36:00.948Z,56.59
2022-11-27T21:38:28.006Z,56.78
2022-11-27T21:40:55.200Z,56.59
2022-11-27T21:43:22.498Z,56.74
2022-11-27T21:45:51.514Z,56.60
2022-11-27T21:48:18.547Z,56.51
2022-11-27T21:50:45.533Z,56.50
2022-11-27T21:53:12.500Z,56.49
2022-11-27T21:55:40.818Z,56.25
2022-11-27T21:58:08.621Z,56.63
2022-11-27T22:00:36.847Z,56.69
2022-11-27T22:03:05.190Z,56.42
2022-11-27T22:05:32.214Z,56.46
2022-11-27T22:07:59.199Z,56.37
2022-11-27T22:10:26.294Z,56.68
2022-11-27T22:12:53.333Z,56.54
2022-11-27T22:15:20.337Z,56.78
2022-11-27T22:17:48.425Z,56.87
2022-11-27T22:20:17.218Z,57.07
2022-11-27T22:22:44.231Z,57.12
2022-11-27T22:25:11.233Z,57.20
2022-11-27T22:27:38.143Z,57.33
2022-11-27T22:30:07.928Z,57.12
2022-11-27T22:32:34.931Z,57.64
2022-11-27T22:35:02.125Z,57.72
2022-11-27T22:37:30.427Z,57.61
2022-11-27T22:39:57.351Z,57.70
2022-11-27T22:42:24.301Z,57.28
2022-11-27T22:44:51.258Z,57.39
2022-11-27T22:47:18.310Z,57.48
2022-11-27T22:49:45.263Z,57.33
2022-11-27T22:52:12.218Z,58.06
2022-11-27T22:54:40.739Z,58.09
2022-11-27T22:57:07.837Z,57.90
2022-11-27T22:59:35.198Z,58.27
2022-11-27T23:02:03.581Z,58.56
2022-11-27T23:04:30.699Z,58.60
2022-11-27T23:06:57.860Z,58.87
2022-11-27T23:09:24.855Z,59.16
2022-11-27T23:11:53.263Z,59.25
2022-11-27T23:14:20.276Z,59.61
2022-11-27T23:16:47.456Z,59.76
2022-11-27T23:19:14.779Z,60.18
2022-11-27T23:21:42.180Z,59.98
2022-11-27T23:24:16.504Z,60.07
2022-11-27T23:26:44.160Z,59.82
2022-11-27T23:29:12.697Z,60.38
2022-11-27T23:31:39.952Z,59.72
2022-11-27T23:34:13.426Z,60.15
2022-11-27T23:36:40.432Z,59.96
2022-11-27T23:39:10.955Z,59.91
2022-11-27T23:41:39.632Z,59.71
2022-11-27T23:44:06.634Z,59.77
2022-11-27T23:46:35.011Z,59.48
2022-11-27T23:49:02.039Z,59.97
2022-11-27T23:51:31.959Z,59.88
2022-11-27T23:54:00.206Z,60.65
2022-11-27T23:56:30.501Z,60.22
2022-11-27T23:58:58.856Z,60.43
